sensor_id;sensor_type;location;lat;lon;timestamp;temperature;humidity
68354;DHT22;55274;43.060;25.618;2022-10-31T00:00:55;11.40;83.80
68354;DHT22;55274;43.060;25.618;2022-10-31T00:03:21;11.50;83.80
68354;DHT22;55274;43.060;25.618;2022-10-31T00:05:48;11.50;83.90
68354;DHT22;55274;43.060;25.618;2022-10-31T00:08:16;11.50;83.80
68354;DHT22;55274;43.060;25.618;2022-10-31T00:10:43;11.50;83.50
68354;DHT22;55274;43.060;25.618;2022-10-31T00:13:09;11.60;83.80
68354;DHT22;55274;43.060;25.618;2022-10-31T00:15:37;11.60;83.90
68354;DHT22;55274;43.060;25.618;2022-10-31T00:18:03;11.60;84.20
68354;DHT22;55274;43.060;25.618;2022-10-31T00:20:30;11.60;84.00
68354;DHT22;55274;43.060;25.618;2022-10-31T00:23:03;11.60;83.90
68354;DHT22;55274;43.060;25.618;2022-10-31T00:25:33;11.60;83.90
68354;DHT22;55274;43.060;25.618;2022-10-31T00:28:00;11.60;83.90
68354;DHT22;55274;43.060;25.618;2022-10-31T00:30:25;11.60;83.90
68354;DHT22;55274;43.060;25.618;2022-10-31T00:32:51;11.60;84.40
68354;DHT22;55274;43.060;25.618;2022-10-31T00:35:17;11.70;85.40
68354;DHT22;55274;43.060;25.618;2022-10-31T00:37:43;11.70;86.10
68354;DHT22;55274;43.060;25.618;2022-10-31T00:40:09;11.60;86.20
68354;DHT22;55274;43.060;25.618;2022-10-31T00:42:35;11.60;86.20
68354;DHT22;55274;43.060;25.618;2022-10-31T00:45:01;11.70;86.60
68354;DHT22;55274;43.060;25.618;2022-10-31T00:47:27;11.70;86.90
68354;DHT22;55274;43.060;25.618;2022-10-31T00:49:52;11.70;87.30
68354;DHT22;55274;43.060;25.618;2022-10-31T00:52:18;11.70;87.50
68354;DHT22;55274;43.060;25.618;2022-10-31T00:54:44;11.70;87.00
68354;DHT22;55274;43.060;25.618;2022-10-31T00:57:10;11.80;86.90
68354;DHT22;55274;43.060;25.618;2022-10-31T00:59:35;11.80;87.40
68354;DHT22;55274;43.060;25.618;2022-10-31T01:02:01;11.80;87.90
68354;DHT22;55274;43.060;25.618;2022-10-31T01:04:27;11.80;88.20
68354;DHT22;55274;43.060;25.618;2022-10-31T01:06:53;11.70;88.70
68354;DHT22;55274;43.060;25.618;2022-10-31T01:09:18;11.70;88.50
68354;DHT22;55274;43.060;25.618;2022-10-31T01:11:45;11.60;88.50
68354;DHT22;55274;43.060;25.618;2022-10-31T01:14:10;11.60;88.80
68354;DHT22;55274;43.060;25.618;2022-10-31T01:16:36;11.60;89.00
68354;DHT22;55274;43.060;25.618;2022-10-31T01:19:02;11.60;89.10
68354;DHT22;55274;43.060;25.618;2022-10-31T01:21:29;11.50;89.70
68354;DHT22;55274;43.060;25.618;2022-10-31T01:23:56;11.50;89.50
68354;DHT22;55274;43.060;25.618;2022-10-31T01:26:27;11.60;88.70
68354;DHT22;55274;43.060;25.618;2022-10-31T01:28:58;11.60;88.10
68354;DHT22;55274;43.060;25.618;2022-10-31T01:31:27;11.60;87.80
68354;DHT22;55274;43.060;25.618;2022-10-31T01:33:54;11.70;87.60
68354;DHT22;55274;43.060;25.618;2022-10-31T01:36:27;11.70;88.60
68354;DHT22;55274;43.060;25.618;2022-10-31T01:38:56;11.70;88.90
68354;DHT22;55274;43.060;25.618;2022-10-31T01:41:25;11.70;89.60
68354;DHT22;55274;43.060;25.618;2022-10-31T01:43:53;11.60;89.80
68354;DHT22;55274;43.060;25.618;2022-10-31T01:46:23;11.60;89.30
68354;DHT22;55274;43.060;25.618;2022-10-31T01:48:50;11.60;89.00
68354;DHT22;55274;43.060;25.618;2022-10-31T01:51:19;11.70;88.20
68354;DHT22;55274;43.060;25.618;2022-10-31T01:53:46;11.70;88.70
68354;DHT22;55274;43.060;25.618;2022-10-31T01:56:13;11.60;89.40
68354;DHT22;55274;43.060;25.618;2022-10-31T01:58:41;11.60;90.00
68354;DHT22;55274;43.060;25.618;2022-10-31T02:01:07;11.60;89.60
68354;DHT22;55274;43.060;25.618;2022-10-31T02:03:33;11.60;89.30
68354;DHT22;55274;43.060;25.618;2022-10-31T02:05:59;11.60;89.00
68354;DHT22;55274;43.060;25.618;2022-10-31T02:08:30;11.60;89.00
68354;DHT22;55274;43.060;25.618;2022-10-31T02:10:57;11.60;88.70
68354;DHT22;55274;43.060;25.618;2022-10-31T02:13:24;11.70;88.40
68354;DHT22;55274;43.060;25.618;2022-10-31T02:15:53;11.60;88.20
68354;DHT22;55274;43.060;25.618;2022-10-31T02:18:20;11.70;88.50
68354;DHT22;55274;43.060;25.618;2022-10-31T02:35:03;11.70;88.80
68354;DHT22;55274;43.060;25.618;2022-10-31T02:37:51;11.70;88.40
68354;DHT22;55274;43.060;25.618;2022-10-31T02:43:06;11.70;88.80
68354;DHT22;55274;43.060;25.618;2022-10-31T02:46:04;11.70;89.10
68354;DHT22;55274;43.060;25.618;2022-10-31T02:48:36;11.70;89.10
68354;DHT22;55274;43.060;25.618;2022-10-31T02:51:04;11.60;88.70
68354;DHT22;55274;43.060;25.618;2022-10-31T02:53:34;11.60;88.70
68354;DHT22;55274;43.060;25.618;2022-10-31T02:58:40;11.50;88.90
68354;DHT22;55274;43.060;25.618;2022-10-31T03:06:50;11.40;88.50
68354;DHT22;55274;43.060;25.618;2022-10-31T03:13:45;11.40;88.80
68354;DHT22;55274;43.060;25.618;2022-10-31T03:15:45;11.40;88.30
68354;DHT22;55274;43.060;25.618;2022-10-31T03:18:34;11.30;87.90
68354;DHT22;55274;43.060;25.618;2022-10-31T03:21:04;11.30;88.50
68354;DHT22;55274;43.060;25.618;2022-10-31T03:23:32;11.20;88.50
68354;DHT22;55274;43.060;25.618;2022-10-31T03:26:00;11.10;88.70
68354;DHT22;55274;43.060;25.618;2022-10-31T03:28:33;11.00;89.10
68354;DHT22;55274;43.060;25.618;2022-10-31T03:31:01;11.00;89.00
68354;DHT22;55274;43.060;25.618;2022-10-31T03:33:31;11.00;88.50
68354;DHT22;55274;43.060;25.618;2022-10-31T03:36:02;10.80;89.00
68354;DHT22;55274;43.060;25.618;2022-10-31T03:38:29;10.80;89.20
68354;DHT22;55274;43.060;25.618;2022-10-31T03:40:58;10.80;89.20
68354;DHT22;55274;43.060;25.618;2022-10-31T03:43:33;10.70;89.40
68354;DHT22;55274;43.060;25.618;2022-10-31T03:46:02;10.70;89.30
68354;DHT22;55274;43.060;25.618;2022-10-31T03:48:28;10.60;89.50
68354;DHT22;55274;43.060;25.618;2022-10-31T03:56:51;10.50;89.60
68354;DHT22;55274;43.060;25.618;2022-10-31T03:59:30;10.50;89.60
68354;DHT22;55274;43.060;25.618;2022-10-31T04:02:05;10.40;89.70
68354;DHT22;55274;43.060;25.618;2022-10-31T04:04:33;10.30;89.80
68354;DHT22;55274;43.060;25.618;2022-10-31T04:07:01;10.40;89.80
68354;DHT22;55274;43.060;25.618;2022-10-31T04:09:29;10.30;90.00
68354;DHT22;55274;43.060;25.618;2022-10-31T04:11:58;10.30;90.50
68354;DHT22;55274;43.060;25.618;2022-10-31T04:14:27;10.30;90.70
68354;DHT22;55274;43.060;25.618;2022-10-31T04:16:55;10.40;90.60
68354;DHT22;55274;43.060;25.618;2022-10-31T04:19:21;10.40;90.90
68354;DHT22;55274;43.060;25.618;2022-10-31T04:21:47;10.40;91.00
68354;DHT22;55274;43.060;25.618;2022-10-31T04:24:12;10.40;91.00
68354;DHT22;55274;43.060;25.618;2022-10-31T04:26:38;10.50;91.00
68354;DHT22;55274;43.060;25.618;2022-10-31T04:29:04;10.60;91.00
68354;DHT22;55274;43.060;25.618;2022-10-31T04:31:30;10.60;91.10
68354;DHT22;55274;43.060;25.618;2022-10-31T04:33:55;10.60;91.00
68354;DHT22;55274;43.060;25.618;2022-10-31T04:36:21;10.50;91.00
68354;DHT22;55274;43.060;25.618;2022-10-31T04:38:47;10.60;90.90
68354;DHT22;55274;43.060;25.618;2022-10-31T04:41:13;10.60;90.90
68354;DHT22;55274;43.060;25.618;2022-10-31T04:43:39;10.60;91.30
68354;DHT22;55274;43.060;25.618;2022-10-31T04:46:04;10.60;91.20
68354;DHT22;55274;43.060;25.618;2022-10-31T04:48:31;10.60;91.10
68354;DHT22;55274;43.060;25.618;2022-10-31T04:51:00;10.70;91.00
68354;DHT22;55274;43.060;25.618;2022-10-31T04:53:26;10.70;91.10
68354;DHT22;55274;43.060;25.618;2022-10-31T04:55:52;10.70;91.20
68354;DHT22;55274;43.060;25.618;2022-10-31T04:58:18;10.70;91.10
68354;DHT22;55274;43.060;25.618;2022-10-31T05:00:44;10.70;90.70
68354;DHT22;55274;43.060;25.618;2022-10-31T05:03:09;10.70;90.90
68354;DHT22;55274;43.060;25.618;2022-10-31T05:05:35;10.70;90.90
68354;DHT22;55274;43.060;25.618;2022-10-31T05:08:01;10.70;90.70
68354;DHT22;55274;43.060;25.618;2022-10-31T05:10:29;10.70;90.50
68354;DHT22;55274;43.060;25.618;2022-10-31T05:12:58;10.70;90.20
68354;DHT22;55274;43.060;25.618;2022-10-31T05:15:26;10.60;90.10
68354;DHT22;55274;43.060;25.618;2022-10-31T05:17:53;10.60;90.60
68354;DHT22;55274;43.060;25.618;2022-10-31T05:20:21;10.60;90.80
68354;DHT22;55274;43.060;25.618;2022-10-31T05:22:49;10.60;91.00
68354;DHT22;55274;43.060;25.618;2022-10-31T05:25:16;10.70;90.90
68354;DHT22;55274;43.060;25.618;2022-10-31T05:27:44;10.70;90.80
68354;DHT22;55274;43.060;25.618;2022-10-31T05:30:11;10.70;90.80
68354;DHT22;55274;43.060;25.618;2022-10-31T05:32:39;10.70;90.80
68354;DHT22;55274;43.060;25.618;2022-10-31T05:35:06;10.80;90.70
68354;DHT22;55274;43.060;25.618;2022-10-31T05:37:34;10.70;90.70
68354;DHT22;55274;43.060;25.618;2022-10-31T05:40:02;10.80;90.50
68354;DHT22;55274;43.060;25.618;2022-10-31T05:42:27;10.80;90.10
68354;DHT22;55274;43.060;25.618;2022-10-31T05:44:53;10.80;90.20
68354;DHT22;55274;43.060;25.618;2022-10-31T05:47:19;10.70;90.50
68354;DHT22;55274;43.060;25.618;2022-10-31T05:49:45;10.70;90.80
68354;DHT22;55274;43.060;25.618;2022-10-31T05:52:11;10.80;90.90
68354;DHT22;55274;43.060;25.618;2022-10-31T05:54:37;10.80;90.60
68354;DHT22;55274;43.060;25.618;2022-10-31T05:57:03;10.90;90.70
68354;DHT22;55274;43.060;25.618;2022-10-31T05:59:29;11.30;90.90
68354;DHT22;55274;43.060;25.618;2022-10-31T06:01:55;11.70;89.50
68354;DHT22;55274;43.060;25.618;2022-10-31T06:04:20;12.10;89.00
68354;DHT22;55274;43.060;25.618;2022-10-31T06:06:46;12.40;88.60
68354;DHT22;55274;43.060;25.618;2022-10-31T06:09:12;12.80;87.50
68354;DHT22;55274;43.060;25.618;2022-10-31T06:11:38;13.10;85.60
68354;DHT22;55274;43.060;25.618;2022-10-31T06:14:04;13.40;84.50
68354;DHT22;55274;43.060;25.618;2022-10-31T06:16:30;13.50;83.80
68354;DHT22;55274;43.060;25.618;2022-10-31T06:18:55;13.70;82.90
68354;DHT22;55274;43.060;25.618;2022-10-31T06:21:21;14.00;81.70
68354;DHT22;55274;43.060;25.618;2022-10-31T06:23:47;14.20;81.50
68354;DHT22;55274;43.060;25.618;2022-10-31T06:26:13;14.50;80.20
68354;DHT22;55274;43.060;25.618;2022-10-31T06:28:39;15.00;79.80
68354;DHT22;55274;43.060;25.618;2022-10-31T06:31:04;15.60;77.70
68354;DHT22;55274;43.060;25.618;2022-10-31T06:33:30;16.00;74.60
68354;DHT22;55274;43.060;25.618;2022-10-31T06:35:56;16.10;74.00
68354;DHT22;55274;43.060;25.618;2022-10-31T06:38:22;16.30;73.10
68354;DHT22;55274;43.060;25.618;2022-10-31T06:40:48;16.80;72.20
68354;DHT22;55274;43.060;25.618;2022-10-31T06:43:13;17.10;70.10
68354;DHT22;55274;43.060;25.618;2022-10-31T06:45:40;17.20;69.30
68354;DHT22;55274;43.060;25.618;2022-10-31T06:48:06;17.40;68.30
68354;DHT22;55274;43.060;25.618;2022-10-31T06:50:32;17.60;68.10
68354;DHT22;55274;43.060;25.618;2022-10-31T06:52:58;17.70;68.10
68354;DHT22;55274;43.060;25.618;2022-10-31T06:55:26;17.90;66.90
68354;DHT22;55274;43.060;25.618;2022-10-31T06:57:53;18.00;66.10
68354;DHT22;55274;43.060;25.618;2022-10-31T07:00:19;18.20;65.70
68354;DHT22;55274;43.060;25.618;2022-10-31T07:03:03;18.50;65.50
68354;DHT22;55274;43.060;25.618;2022-10-31T07:05:29;18.60;65.00
68354;DHT22;55274;43.060;25.618;2022-10-31T07:07:57;18.80;63.60
68354;DHT22;55274;43.060;25.618;2022-10-31T07:10:25;18.80;63.10
68354;DHT22;55274;43.060;25.618;2022-10-31T07:12:58;19.00;62.80
68354;DHT22;55274;43.060;25.618;2022-10-31T07:15:26;19.20;62.00
68354;DHT22;55274;43.060;25.618;2022-10-31T07:17:52;19.00;63.20
68354;DHT22;55274;43.060;25.618;2022-10-31T07:20:18;18.80;63.50
68354;DHT22;55274;43.060;25.618;2022-10-31T07:22:44;18.90;63.70
68354;DHT22;55274;43.060;25.618;2022-10-31T07:25:11;19.00;63.50
68354;DHT22;55274;43.060;25.618;2022-10-31T07:27:38;19.20;63.00
68354;DHT22;55274;43.060;25.618;2022-10-31T07:30:05;19.30;63.20
68354;DHT22;55274;43.060;25.618;2022-10-31T07:32:41;19.20;62.70
68354;DHT22;55274;43.060;25.618;2022-10-31T07:35:08;19.40;62.20
68354;DHT22;55274;43.060;25.618;2022-10-31T07:37:35;19.50;61.70
68354;DHT22;55274;43.060;25.618;2022-10-31T07:40:04;19.60;61.10
68354;DHT22;55274;43.060;25.618;2022-10-31T07:42:37;19.70;60.90
68354;DHT22;55274;43.060;25.618;2022-10-31T07:45:05;19.90;61.00
68354;DHT22;55274;43.060;25.618;2022-10-31T07:47:41;20.10;60.10
68354;DHT22;55274;43.060;25.618;2022-10-31T07:50:09;20.20;59.90
68354;DHT22;55274;43.060;25.618;2022-10-31T07:52:35;20.20;59.00
68354;DHT22;55274;43.060;25.618;2022-10-31T07:55:01;20.40;58.30
68354;DHT22;55274;43.060;25.618;2022-10-31T07:57:27;20.70;58.40
68354;DHT22;55274;43.060;25.618;2022-10-31T07:59:53;20.80;59.10
68354;DHT22;55274;43.060;25.618;2022-10-31T08:02:18;21.00;59.30
68354;DHT22;55274;43.060;25.618;2022-10-31T08:04:44;21.10;58.20
68354;DHT22;55274;43.060;25.618;2022-10-31T08:07:10;21.30;58.10
68354;DHT22;55274;43.060;25.618;2022-10-31T08:09:36;21.50;58.10
68354;DHT22;55274;43.060;25.618;2022-10-31T08:12:01;21.70;58.10
68354;DHT22;55274;43.060;25.618;2022-10-31T08:14:27;21.80;57.40
68354;DHT22;55274;43.060;25.618;2022-10-31T08:16:54;22.00;57.20
68354;DHT22;55274;43.060;25.618;2022-10-31T08:19:20;22.20;56.00
68354;DHT22;55274;43.060;25.618;2022-10-31T08:21:46;22.50;55.70
68354;DHT22;55274;43.060;25.618;2022-10-31T08:24:11;22.70;54.30
68354;DHT22;55274;43.060;25.618;2022-10-31T08:26:37;22.90;54.50
68354;DHT22;55274;43.060;25.618;2022-10-31T08:29:03;23.00;54.10
68354;DHT22;55274;43.060;25.618;2022-10-31T08:31:29;23.10;52.50
68354;DHT22;55274;43.060;25.618;2022-10-31T08:33:55;23.20;52.40
68354;DHT22;55274;43.060;25.618;2022-10-31T08:36:21;23.20;52.50
68354;DHT22;55274;43.060;25.618;2022-10-31T08:38:47;23.40;51.80
68354;DHT22;55274;43.060;25.618;2022-10-31T08:41:13;23.50;51.80
68354;DHT22;55274;43.060;25.618;2022-10-31T08:43:39;23.50;50.90
68354;DHT22;55274;43.060;25.618;2022-10-31T08:46:05;23.70;50.70
68354;DHT22;55274;43.060;25.618;2022-10-31T08:48:31;23.80;50.60
68354;DHT22;55274;43.060;25.618;2022-10-31T08:50:58;23.90;50.20
68354;DHT22;55274;43.060;25.618;2022-10-31T08:53:25;24.00;49.70
68354;DHT22;55274;43.060;25.618;2022-10-31T08:55:53;24.00;49.90
68354;DHT22;55274;43.060;25.618;2022-10-31T08:58:19;24.00;50.00
68354;DHT22;55274;43.060;25.618;2022-10-31T09:00:48;24.30;49.60
68354;DHT22;55274;43.060;25.618;2022-10-31T09:03:23;24.50;49.50
68354;DHT22;55274;43.060;25.618;2022-10-31T09:05:49;24.50;48.60
68354;DHT22;55274;43.060;25.618;2022-10-31T09:08:16;24.60;48.80
68354;DHT22;55274;43.060;25.618;2022-10-31T09:10:43;24.70;48.30
68354;DHT22;55274;43.060;25.618;2022-10-31T09:13:11;24.80;48.60
68354;DHT22;55274;43.060;25.618;2022-10-31T09:15:39;24.70;47.70
68354;DHT22;55274;43.060;25.618;2022-10-31T09:18:06;24.70;48.10
68354;DHT22;55274;43.060;25.618;2022-10-31T09:20:33;24.60;48.50
68354;DHT22;55274;43.060;25.618;2022-10-31T09:23:03;24.50;48.50
68354;DHT22;55274;43.060;25.618;2022-10-31T09:25:29;24.50;47.80
68354;DHT22;55274;43.060;25.618;2022-10-31T09:27:56;24.20;48.30
68354;DHT22;55274;43.060;25.618;2022-10-31T09:30:23;24.20;49.10
68354;DHT22;55274;43.060;25.618;2022-10-31T09:32:54;24.60;48.70
68354;DHT22;55274;43.060;25.618;2022-10-31T09:35:19;24.50;48.70
68354;DHT22;55274;43.060;25.618;2022-10-31T09:37:45;24.60;48.80
68354;DHT22;55274;43.060;25.618;2022-10-31T09:40:11;24.70;48.60
68354;DHT22;55274;43.060;25.618;2022-10-31T09:42:59;24.50;47.70
68354;DHT22;55274;43.060;25.618;2022-10-31T09:45:53;24.50;48.20
68354;DHT22;55274;43.060;25.618;2022-10-31T09:51:38;24.70;47.40
68354;DHT22;55274;43.060;25.618;2022-10-31T09:54:27;24.60;48.30
68354;DHT22;55274;43.060;25.618;2022-10-31T09:56:57;25.00;47.20
68354;DHT22;55274;43.060;25.618;2022-10-31T09:59:38;25.40;47.40
68354;DHT22;55274;43.060;25.618;2022-10-31T10:04:57;25.90;45.10
68354;DHT22;55274;43.060;25.618;2022-10-31T10:07:49;25.80;44.40
68354;DHT22;55274;43.060;25.618;2022-10-31T10:15:49;25.90;44.30
68354;DHT22;55274;43.060;25.618;2022-10-31T10:21:51;26.00;44.60
68354;DHT22;55274;43.060;25.618;2022-10-31T10:26:41;25.90;43.90
68354;DHT22;55274;43.060;25.618;2022-10-31T10:29:29;25.90;43.90
68354;DHT22;55274;43.060;25.618;2022-10-31T10:31:58;26.20;44.40
68354;DHT22;55274;43.060;25.618;2022-10-31T10:34:44;26.40;44.50
68354;DHT22;55274;43.060;25.618;2022-10-31T10:37:22;26.40;44.20
68354;DHT22;55274;43.060;25.618;2022-10-31T10:39:54;26.50;43.90
68354;DHT22;55274;43.060;25.618;2022-10-31T10:42:23;26.50;43.40
68354;DHT22;55274;43.060;25.618;2022-10-31T10:45:17;26.30;43.20
68354;DHT22;55274;43.060;25.618;2022-10-31T10:48:20;26.50;43.30
68354;DHT22;55274;43.060;25.618;2022-10-31T10:50:50;26.40;43.10
68354;DHT22;55274;43.060;25.618;2022-10-31T10:56:15;26.50;42.80
68354;DHT22;55274;43.060;25.618;2022-10-31T10:58:42;26.50;43.00
68354;DHT22;55274;43.060;25.618;2022-10-31T11:01:13;26.60;42.70
68354;DHT22;55274;43.060;25.618;2022-10-31T11:03:39;26.40;42.20
68354;DHT22;55274;43.060;25.618;2022-10-31T11:06:20;26.10;42.80
68354;DHT22;55274;43.060;25.618;2022-10-31T11:08:50;25.90;42.90
68354;DHT22;55274;43.060;25.618;2022-10-31T11:11:23;26.20;43.90
68354;DHT22;55274;43.060;25.618;2022-10-31T11:14:03;26.40;43.30
68354;DHT22;55274;43.060;25.618;2022-10-31T11:16:31;26.10;42.90
68354;DHT22;55274;43.060;25.618;2022-10-31T11:21:34;26.00;43.80
68354;DHT22;55274;43.060;25.618;2022-10-31T11:26:36;26.10;43.80
68354;DHT22;55274;43.060;25.618;2022-10-31T11:29:04;26.20;43.50
68354;DHT22;55274;43.060;25.618;2022-10-31T11:31:32;26.30;43.20
68354;DHT22;55274;43.060;25.618;2022-10-31T11:34:02;26.30;43.10
68354;DHT22;55274;43.060;25.618;2022-10-31T11:36:35;26.20;43.00
68354;DHT22;55274;43.060;25.618;2022-10-31T11:39:04;26.10;43.40
68354;DHT22;55274;43.060;25.618;2022-10-31T11:41:33;26.00;43.20
68354;DHT22;55274;43.060;25.618;2022-10-31T11:44:20;25.80;42.80
68354;DHT22;55274;43.060;25.618;2022-10-31T11:46:56;25.90;43.60
68354;DHT22;55274;43.060;25.618;2022-10-31T11:49:39;25.90;44.20
68354;DHT22;55274;43.060;25.618;2022-10-31T11:52:16;25.70;44.00
68354;DHT22;55274;43.060;25.618;2022-10-31T11:54:55;25.60;44.50
68354;DHT22;55274;43.060;25.618;2022-10-31T11:57:43;25.50;44.20
68354;DHT22;55274;43.060;25.618;2022-10-31T12:00:30;25.50;44.40
68354;DHT22;55274;43.060;25.618;2022-10-31T12:03:35;25.50;44.20
68354;DHT22;55274;43.060;25.618;2022-10-31T12:06:50;25.30;44.70
68354;DHT22;55274;43.060;25.618;2022-10-31T12:08:57;25.10;45.50
68354;DHT22;55274;43.060;25.618;2022-10-31T12:11:38;25.10;45.60
68354;DHT22;55274;43.060;25.618;2022-10-31T12:17:21;24.90;45.60
68354;DHT22;55274;43.060;25.618;2022-10-31T12:20:20;24.80;46.00
68354;DHT22;55274;43.060;25.618;2022-10-31T12:23:03;24.80;46.10
68354;DHT22;55274;43.060;25.618;2022-10-31T12:36:26;24.70;46.80
68354;DHT22;55274;43.060;25.618;2022-10-31T12:41:32;24.80;46.30
68354;DHT22;55274;43.060;25.618;2022-10-31T12:55:01;24.70;46.80
68354;DHT22;55274;43.060;25.618;2022-10-31T12:57:49;24.70;46.20
68354;DHT22;55274;43.060;25.618;2022-10-31T13:00:17;24.80;46.80
68354;DHT22;55274;43.060;25.618;2022-10-31T13:02:59;24.80;46.70
68354;DHT22;55274;43.060;25.618;2022-10-31T13:05:38;24.80;46.40
68354;DHT22;55274;43.060;25.618;2022-10-31T13:08:24;24.80;46.40
68354;DHT22;55274;43.060;25.618;2022-10-31T13:13:49;24.80;46.40
68354;DHT22;55274;43.060;25.618;2022-10-31T13:16:22;24.70;46.40
68354;DHT22;55274;43.060;25.618;2022-10-31T13:19:17;24.60;46.50
68354;DHT22;55274;43.060;25.618;2022-10-31T13:22:08;24.50;46.70
68354;DHT22;55274;43.060;25.618;2022-10-31T13:24:54;24.30;46.90
68354;DHT22;55274;43.060;25.618;2022-10-31T13:27:29;24.20;47.50
68354;DHT22;55274;43.060;25.618;2022-10-31T13:30:19;24.00;47.40
68354;DHT22;55274;43.060;25.618;2022-10-31T13:33:00;23.90;47.80
68354;DHT22;55274;43.060;25.618;2022-10-31T13:38:41;23.70;48.70
68354;DHT22;55274;43.060;25.618;2022-10-31T13:44:03;23.60;49.10
68354;DHT22;55274;43.060;25.618;2022-10-31T13:48:59;23.40;50.90
68354;DHT22;55274;43.060;25.618;2022-10-31T13:51:31;23.20;50.90
68354;DHT22;55274;43.060;25.618;2022-10-31T13:54:06;23.20;51.00
68354;DHT22;55274;43.060;25.618;2022-10-31T13:56:49;23.10;51.30
68354;DHT22;55274;43.060;25.618;2022-10-31T13:59:23;23.00;51.20
68354;DHT22;55274;43.060;25.618;2022-10-31T14:01:53;23.00;51.80
68354;DHT22;55274;43.060;25.618;2022-10-31T14:04:21;22.90;50.80
68354;DHT22;55274;43.060;25.618;2022-10-31T14:11:50;22.60;52.40
68354;DHT22;55274;43.060;25.618;2022-10-31T14:14:18;22.40;53.10
68354;DHT22;55274;43.060;25.618;2022-10-31T14:16:45;22.30;52.20
68354;DHT22;55274;43.060;25.618;2022-10-31T14:19:17;22.20;53.90
68354;DHT22;55274;43.060;25.618;2022-10-31T14:21:47;22.10;53.50
68354;DHT22;55274;43.060;25.618;2022-10-31T14:26:59;21.90;53.80
68354;DHT22;55274;43.060;25.618;2022-10-31T14:29:28;21.80;53.90
68354;DHT22;55274;43.060;25.618;2022-10-31T14:32:21;21.80;54.70
68354;DHT22;55274;43.060;25.618;2022-10-31T14:34:55;21.60;55.70
68354;DHT22;55274;43.060;25.618;2022-10-31T14:40:10;21.40;55.60
68354;DHT22;55274;43.060;25.618;2022-10-31T14:51:20;20.90;56.90
68354;DHT22;55274;43.060;25.618;2022-10-31T14:53:55;20.80;57.50
68354;DHT22;55274;43.060;25.618;2022-10-31T14:56:25;20.60;58.10
68354;DHT22;55274;43.060;25.618;2022-10-31T14:58:53;20.50;57.80
68354;DHT22;55274;43.060;25.618;2022-10-31T15:01:35;20.40;58.90
68354;DHT22;55274;43.060;25.618;2022-10-31T15:04:22;20.20;59.60
68354;DHT22;55274;43.060;25.618;2022-10-31T15:07:02;20.10;60.00
68354;DHT22;55274;43.060;25.618;2022-10-31T15:09:34;20.00;61.50
68354;DHT22;55274;43.060;25.618;2022-10-31T15:12:01;19.90;60.90
68354;DHT22;55274;43.060;25.618;2022-10-31T15:14:42;19.70;61.10
68354;DHT22;55274;43.060;25.618;2022-10-31T15:17:11;19.60;61.30
68354;DHT22;55274;43.060;25.618;2022-10-31T15:19:38;19.50;61.60
68354;DHT22;55274;43.060;25.618;2022-10-31T15:22:04;19.40;63.10
68354;DHT22;55274;43.060;25.618;2022-10-31T15:24:35;19.30;63.80
68354;DHT22;55274;43.060;25.618;2022-10-31T15:27:02;19.20;63.60
68354;DHT22;55274;43.060;25.618;2022-10-31T15:29:29;19.00;63.30
68354;DHT22;55274;43.060;25.618;2022-10-31T15:32:00;19.00;63.60
68354;DHT22;55274;43.060;25.618;2022-10-31T15:34:38;18.80;63.90
68354;DHT22;55274;43.060;25.618;2022-10-31T15:37:13;18.70;64.30
68354;DHT22;55274;43.060;25.618;2022-10-31T15:39:40;18.50;64.90
68354;DHT22;55274;43.060;25.618;2022-10-31T15:42:27;18.50;65.00
68354;DHT22;55274;43.060;25.618;2022-10-31T15:47:26;18.30;65.60
68354;DHT22;55274;43.060;25.618;2022-10-31T15:49:56;18.20;65.40
68354;DHT22;55274;43.060;25.618;2022-10-31T15:55:03;18.00;65.90
68354;DHT22;55274;43.060;25.618;2022-10-31T15:57:30;17.90;66.00
68354;DHT22;55274;43.060;25.618;2022-10-31T15:59:56;17.80;66.40
68354;DHT22;55274;43.060;25.618;2022-10-31T16:02:24;17.70;66.90
68354;DHT22;55274;43.060;25.618;2022-10-31T16:04:59;17.60;67.00
68354;DHT22;55274;43.060;25.618;2022-10-31T16:07:27;17.60;67.40
68354;DHT22;55274;43.060;25.618;2022-10-31T16:09:55;17.40;67.70
68354;DHT22;55274;43.060;25.618;2022-10-31T16:12:22;17.30;68.20
68354;DHT22;55274;43.060;25.618;2022-10-31T16:14:51;17.20;68.30
68354;DHT22;55274;43.060;25.618;2022-10-31T16:17:20;17.10;68.40
68354;DHT22;55274;43.060;25.618;2022-10-31T16:19:51;17.00;68.30
68354;DHT22;55274;43.060;25.618;2022-10-31T16:22:23;17.00;68.50
68354;DHT22;55274;43.060;25.618;2022-10-31T16:27:55;16.90;69.10
68354;DHT22;55274;43.060;25.618;2022-10-31T16:32:58;16.80;69.20
68354;DHT22;55274;43.060;25.618;2022-10-31T16:35:28;16.80;69.60
68354;DHT22;55274;43.060;25.618;2022-10-31T16:37:57;16.70;69.70
68354;DHT22;55274;43.060;25.618;2022-10-31T16:40:23;16.60;69.90
68354;DHT22;55274;43.060;25.618;2022-10-31T16:42:49;16.50;70.10
68354;DHT22;55274;43.060;25.618;2022-10-31T16:45:23;16.50;70.50
68354;DHT22;55274;43.060;25.618;2022-10-31T16:47:50;16.30;70.70
68354;DHT22;55274;43.060;25.618;2022-10-31T16:50:26;16.20;71.00
68354;DHT22;55274;43.060;25.618;2022-10-31T16:52:53;16.10;71.60
68354;DHT22;55274;43.060;25.618;2022-10-31T16:55:19;16.00;71.90
68354;DHT22;55274;43.060;25.618;2022-10-31T16:57:56;15.90;72.10
68354;DHT22;55274;43.060;25.618;2022-10-31T17:00:23;15.90;72.10
68354;DHT22;55274;43.060;25.618;2022-10-31T17:02:54;15.80;72.50
68354;DHT22;55274;43.060;25.618;2022-10-31T17:05:23;15.80;73.00
68354;DHT22;55274;43.060;25.618;2022-10-31T17:07:58;15.70;72.80
68354;DHT22;55274;43.060;25.618;2022-10-31T17:10:25;15.60;73.00
68354;DHT22;55274;43.060;25.618;2022-10-31T17:12:52;15.50;73.30
68354;DHT22;55274;43.060;25.618;2022-10-31T17:15:21;15.50;73.50
68354;DHT22;55274;43.060;25.618;2022-10-31T17:17:47;15.40;73.90
68354;DHT22;55274;43.060;25.618;2022-10-31T17:22:45;15.30;74.10
68354;DHT22;55274;43.060;25.618;2022-10-31T17:25:22;15.30;73.90
68354;DHT22;55274;43.060;25.618;2022-10-31T17:27:49;15.20;74.50
68354;DHT22;55274;43.060;25.618;2022-10-31T17:30:16;15.20;74.50
68354;DHT22;55274;43.060;25.618;2022-10-31T17:32:44;15.10;74.70
68354;DHT22;55274;43.060;25.618;2022-10-31T17:35:11;15.00;74.80
68354;DHT22;55274;43.060;25.618;2022-10-31T17:37:40;15.00;75.00
68354;DHT22;55274;43.060;25.618;2022-10-31T17:40:11;14.90;75.40
68354;DHT22;55274;43.060;25.618;2022-10-31T17:42:37;14.80;75.40
68354;DHT22;55274;43.060;25.618;2022-10-31T17:45:04;14.70;75.40